createdAt,value
2023-02-15T00:02:26.749Z,1.13
2023-02-15T00:07:29.891Z,0.95
2023-02-15T00:10:01.027Z,0.80
2023-02-15T00:12:33.818Z,0.77
2023-02-15T00:15:04.856Z,0.70
2023-02-15T00:17:36.038Z,0.80
2023-02-15T00:20:08.316Z,0.80
2023-02-15T00:22:39.938Z,0.75
2023-02-15T00:25:10.922Z,0.80
2023-02-15T00:27:42.062Z,0.82
2023-02-15T00:30:13.558Z,0.90
2023-02-15T00:32:44.708Z,0.80
2023-02-15T00:35:15.842Z,0.90
2023-02-15T00:37:47.062Z,0.95
2023-02-15T00:40:18.502Z,0.80
2023-02-15T00:45:20.345Z,0.85
2023-02-15T00:50:23.828Z,1.00
2023-02-15T00:52:55.478Z,1.08
2023-02-15T00:55:26.862Z,0.90
2023-02-15T00:57:57.810Z,1.25
2023-02-15T01:00:28.928Z,1.20
2023-02-15T01:03:00.967Z,0.90
2023-02-15T01:05:32.552Z,1.10
2023-02-15T01:08:04.216Z,0.77
2023-02-15T01:10:36.242Z,1.00
2023-02-15T01:13:07.831Z,0.93
2023-02-15T01:15:39.510Z,1.00
2023-02-15T01:18:10.989Z,0.93
2023-02-15T01:20:43.591Z,1.25
2023-02-15T01:23:14.580Z,1.02
2023-02-15T01:28:16.691Z,1.25
2023-02-15T01:30:47.816Z,1.10
2023-02-15T01:33:20.856Z,1.30
2023-02-15T01:35:52.120Z,1.48
2023-02-15T01:41:17.416Z,1.20
2023-02-15T01:43:51.391Z,1.30
2023-02-15T01:46:27.930Z,1.20
2023-02-15T01:49:06.989Z,1.05
2023-02-15T01:51:40.014Z,1.48
2023-02-15T01:54:27.069Z,1.42
2023-02-15T01:57:01.593Z,1.42
2023-02-15T01:59:35.508Z,1.50
2023-02-15T02:02:09.093Z,1.30
2023-02-15T02:04:52.069Z,1.20
2023-02-15T02:07:25.361Z,1.08
2023-02-15T02:09:56.840Z,1.20
2023-02-15T02:12:28.838Z,1.92
2023-02-15T02:15:00.334Z,1.63
2023-02-15T02:17:40.128Z,1.40
2023-02-15T02:20:39.096Z,1.25
2023-02-15T02:23:28.524Z,1.50
2023-02-15T02:26:36.247Z,1.50
2023-02-15T02:29:22.279Z,1.77
2023-02-15T02:32:25.441Z,1.45
2023-02-15T02:35:36.789Z,1.50
2023-02-15T02:38:16.934Z,1.50
2023-02-15T02:41:07.020Z,1.45
2023-02-15T02:44:16.584Z,1.40
2023-02-15T02:46:57.962Z,1.38
2023-02-15T02:49:38.304Z,1.88
2023-02-15T02:52:30.464Z,1.55
2023-02-15T02:55:02.666Z,1.70
2023-02-15T02:57:34.610Z,1.88
2023-02-15T03:00:10.891Z,1.73
2023-02-15T03:02:44.879Z,1.42
2023-02-15T03:05:19.503Z,1.55
2023-02-15T03:07:53.525Z,1.83
2023-02-15T03:10:26.217Z,1.60
2023-02-15T03:12:57.824Z,1.70
2023-02-15T03:15:53.300Z,1.40
2023-02-15T03:18:30.170Z,1.58
2023-02-15T03:21:05.154Z,1.80
2023-02-15T03:23:37.640Z,1.80
2023-02-15T03:26:11.216Z,1.58
2023-02-15T03:28:48.573Z,1.70
2023-02-15T03:31:21.224Z,1.80
2023-02-15T03:34:03.834Z,2.20
2023-02-15T03:36:40.367Z,2.13
2023-02-15T03:39:23.406Z,1.70
2023-02-15T03:42:07.155Z,1.80
2023-02-15T03:45:01.910Z,1.70
2023-02-15T03:47:41.297Z,1.73
2023-02-15T03:50:40.555Z,1.80
2023-02-15T03:53:15.550Z,1.58
2023-02-15T03:55:50.584Z,1.48
2023-02-15T03:58:39.704Z,1.70
2023-02-15T04:02:00.762Z,1.58
2023-02-15T04:04:45.060Z,1.60
2023-02-15T04:07:16.696Z,1.90
2023-02-15T04:10:05.432Z,1.42
2023-02-15T04:12:37.140Z,1.50
2023-02-15T04:15:27.149Z,1.40
2023-02-15T04:18:01.298Z,1.60
2023-02-15T04:20:50.812Z,1.80
2023-02-15T04:23:39.556Z,1.50
2023-02-15T04:26:11.555Z,1.70
2023-02-15T04:28:42.850Z,1.60
2023-02-15T04:31:14.055Z,1.70
2023-02-15T04:33:46.342Z,1.55
2023-02-15T04:36:17.655Z,1.60
2023-02-15T04:38:48.682Z,1.65
2023-02-15T04:41:19.707Z,1.50
2023-02-15T04:43:50.869Z,1.58
2023-02-15T04:46:22.273Z,1.67
2023-02-15T04:48:53.768Z,1.65
2023-02-15T04:53:55.694Z,1.50
2023-02-15T04:56:27.056Z,1.65
2023-02-15T04:58:58.346Z,1.40
2023-02-15T05:01:29.701Z,1.40
2023-02-15T05:04:00.981Z,1.55
2023-02-15T05:06:32.446Z,1.50
2023-02-15T05:09:03.954Z,1.45
2023-02-15T05:11:35.540Z,1.60
2023-02-15T05:14:06.969Z,2.00
2023-02-15T05:16:38.810Z,1.40
2023-02-15T05:19:09.900Z,1.30
2023-02-15T05:21:40.956Z,1.50
2023-02-15T05:24:29.894Z,1.65
2023-02-15T05:27:20.126Z,1.60
2023-02-15T05:29:51.828Z,1.60
2023-02-15T05:34:53.526Z,1.30
2023-02-15T05:37:24.644Z,1.70
2023-02-15T05:39:56.029Z,2.05
2023-02-15T05:42:27.012Z,1.90
2023-02-15T05:44:58.311Z,1.92
2023-02-15T05:47:29.560Z,1.58
2023-02-15T05:50:00.569Z,1.80
2023-02-15T05:52:33.420Z,1.60
2023-02-15T05:55:05.141Z,2.55
2023-02-15T05:57:36.354Z,1.90
2023-02-15T06:00:08.438Z,2.03
2023-02-15T06:02:42.685Z,1.85
2023-02-15T06:05:13.954Z,1.75
2023-02-15T06:07:49.629Z,2.80
2023-02-15T06:10:20.798Z,1.90
2023-02-15T06:12:52.083Z,1.98
2023-02-15T06:15:23.330Z,1.67
2023-02-15T06:17:54.836Z,1.75
2023-02-15T06:20:25.778Z,2.03
2023-02-15T06:22:56.732Z,1.60
2023-02-15T06:25:28.032Z,1.55
2023-02-15T06:28:00.144Z,1.67
2023-02-15T06:30:31.405Z,2.20
2023-02-15T06:35:33.519Z,1.70
2023-02-15T06:38:05.049Z,1.98
2023-02-15T06:40:36.225Z,2.03
2023-02-15T06:43:07.376Z,2.80
2023-02-15T06:45:38.429Z,2.38
2023-02-15T06:48:10.556Z,2.22
2023-02-15T06:50:41.766Z,2.30
2023-02-15T06:53:13.198Z,1.98
2023-02-15T06:55:47.256Z,2.47
2023-02-15T06:58:18.347Z,2.40
2023-02-15T07:00:49.404Z,2.38
2023-02-15T07:03:20.727Z,2.17
2023-02-15T07:05:52.208Z,2.00
2023-02-15T07:08:23.398Z,2.10
2023-02-15T07:10:55.066Z,2.20
2023-02-15T07:13:26.196Z,2.00
2023-02-15T07:15:57.391Z,3.15
2023-02-15T07:18:31.099Z,2.35
2023-02-15T07:21:02.213Z,1.90
2023-02-15T07:23:33.397Z,2.10
2023-02-15T07:26:08.898Z,2.03
2023-02-15T07:28:40.884Z,1.88
2023-02-15T07:31:12.210Z,1.85
2023-02-15T07:36:14.622Z,1.90
2023-02-15T07:38:51.747Z,2.00
2023-02-15T07:41:23.391Z,1.85
2023-02-15T07:43:54.886Z,2.08
2023-02-15T07:46:34.616Z,2.35
2023-02-15T07:49:06.243Z,2.47
2023-02-15T07:51:37.615Z,2.08
2023-02-15T07:54:08.838Z,1.95
2023-02-15T07:56:39.828Z,2.33
2023-02-15T07:59:11.561Z,1.80
2023-02-15T08:01:43.202Z,2.17
2023-02-15T08:04:14.526Z,1.98
2023-02-15T08:06:45.597Z,2.10
2023-02-15T08:09:16.691Z,1.90
2023-02-15T08:11:48.213Z,1.75
2023-02-15T08:14:25.681Z,2.22
2023-02-15T08:16:58.727Z,2.33
2023-02-15T08:19:31.997Z,2.00
2023-02-15T08:22:06.475Z,2.20
2023-02-15T08:24:40.091Z,2.22
2023-02-15T08:27:13.250Z,2.28
2023-02-15T08:29:45.445Z,2.10
2023-02-15T08:32:16.730Z,1.90
2023-02-15T08:34:47.903Z,1.75
2023-02-15T08:37:18.905Z,2.10
2023-02-15T08:39:49.837Z,2.78
2023-02-15T08:42:23.164Z,2.08
2023-02-15T08:44:54.200Z,2.20
2023-02-15T08:47:25.231Z,2.15
2023-02-15T08:49:56.537Z,1.80
2023-02-15T08:52:28.059Z,2.30
2023-02-15T08:54:58.996Z,2.03
2023-02-15T08:57:30.919Z,1.90
2023-02-15T09:02:33.588Z,2.10
2023-02-15T09:05:05.349Z,1.77
2023-02-15T09:07:36.698Z,2.17
2023-02-15T09:10:08.594Z,2.13
2023-02-15T09:12:39.490Z,2.00
2023-02-15T09:15:10.851Z,1.90
2023-02-15T09:17:41.839Z,1.50
2023-02-15T09:20:13.342Z,1.98
2023-02-15T09:22:44.308Z,2.00
2023-02-15T09:25:16.155Z,1.80
2023-02-15T09:27:47.140Z,1.92
2023-02-15T09:32:49.988Z,1.80
2023-02-15T09:35:21.162Z,2.00
2023-02-15T09:37:52.386Z,1.90
2023-02-15T09:40:23.791Z,1.60
2023-02-15T09:43:39.407Z,1.50
2023-02-15T09:46:23.782Z,1.92
2023-02-15T09:49:02.557Z,1.83
2023-02-15T09:51:48.713Z,2.08
2023-02-15T09:54:29.300Z,1.52
2023-02-15T09:57:08.414Z,1.80
2023-02-15T10:00:19.790Z,1.67
2023-02-15T10:03:06.827Z,1.67
2023-02-15T10:05:59.556Z,1.88
2023-02-15T10:08:51.537Z,1.88
2023-02-15T10:11:44.015Z,1.67
2023-02-15T10:14:43.192Z,1.70
2023-02-15T10:17:32.297Z,1.73
2023-02-15T10:20:32.536Z,1.90
2023-02-15T10:23:06.746Z,1.85
2023-02-15T10:26:05.367Z,2.15
2023-02-15T10:28:39.749Z,1.60
2023-02-15T10:31:18.506Z,1.90
2023-02-15T10:33:50.036Z,1.70
2023-02-15T10:36:38.138Z,1.80
2023-02-15T10:39:26.931Z,1.98
2023-02-15T10:42:37.966Z,1.95
2023-02-15T10:45:12.222Z,1.83
2023-02-15T10:47:55.222Z,1.80
2023-02-15T10:50:33.639Z,1.73
2023-02-15T10:53:17.593Z,1.83
2023-02-15T10:56:15.366Z,2.13
2023-02-15T10:59:07.724Z,2.38
2023-02-15T11:01:57.085Z,1.90
2023-02-15T11:04:43.539Z,1.63
2023-02-15T11:07:29.401Z,1.65
2023-02-15T11:10:46.367Z,1.60
2023-02-15T11:13:22.214Z,2.00
2023-02-15T11:16:08.646Z,1.70
2023-02-15T11:18:45.044Z,1.90
2023-02-15T11:21:54.355Z,1.80
2023-02-15T11:24:30.009Z,1.80
2023-02-15T11:27:23.692Z,1.80
2023-02-15T11:29:57.942Z,1.95
2023-02-15T11:32:42.205Z,1.77
2023-02-15T11:35:16.380Z,1.95
2023-02-15T11:38:18.025Z,1.98
2023-02-15T11:41:01.501Z,2.20
2023-02-15T11:44:21.854Z,2.67
2023-02-15T11:46:53.953Z,2.10
2023-02-15T11:49:35.111Z,2.08
2023-02-15T11:52:10.581Z,2.30
2023-02-15T11:54:54.108Z,2.00
2023-02-15T11:57:40.652Z,1.95
2023-02-15T12:00:18.954Z,2.30
2023-02-15T12:02:53.675Z,2.15
2023-02-15T12:05:27.012Z,2.20
2023-02-15T12:08:19.995Z,2.40
2023-02-15T12:11:01.092Z,2.10
2023-02-15T12:13:32.672Z,2.40
2023-02-15T12:18:49.902Z,2.20
2023-02-15T12:21:44.063Z,2.22
2023-02-15T12:24:48.689Z,2.08
2023-02-15T12:27:46.404Z,2.22
2023-02-15T12:30:28.679Z,1.98
2023-02-15T12:33:02.781Z,2.20
2023-02-15T12:35:36.779Z,1.90
2023-02-15T12:38:13.783Z,2.30
2023-02-15T12:40:45.939Z,2.30
2023-02-15T12:43:36.813Z,2.67
2023-02-15T12:46:24.759Z,2.58
2023-02-15T12:49:22.620Z,2.63
2023-02-15T12:51:58.378Z,2.35
2023-02-15T12:54:44.366Z,2.38
2023-02-15T12:57:23.991Z,2.60
2023-02-15T13:00:03.197Z,2.80
2023-02-15T13:02:45.044Z,2.40
2023-02-15T13:05:26.101Z,2.60
2023-02-15T13:08:05.792Z,2.67
2023-02-15T13:11:04.069Z,2.30
2023-02-15T13:13:37.491Z,2.00
2023-02-15T13:16:14.673Z,2.20
2023-02-15T13:18:50.295Z,1.88
2023-02-15T13:21:31.341Z,2.45
2023-02-15T13:24:10.133Z,2.20
2023-02-15T13:26:43.143Z,2.10
2023-02-15T13:29:25.807Z,2.50
2023-02-15T13:31:58.289Z,2.22
2023-02-15T13:34:36.838Z,2.17
2023-02-15T13:37:35.081Z,3.47
2023-02-15T13:40:20.925Z,2.17
2023-02-15T13:43:22.171Z,2.15
2023-02-15T13:46:08.611Z,2.20
2023-02-15T13:48:50.781Z,2.10
2023-02-15T13:51:46.472Z,2.08
2023-02-15T13:54:46.068Z,2.15
2023-02-15T13:57:41.846Z,2.10
2023-02-15T14:00:24.568Z,2.20
2023-02-15T14:03:04.432Z,2.00
2023-02-15T14:05:53.402Z,2.10
2023-02-15T14:08:42.733Z,2.08
2023-02-15T14:11:35.251Z,2.28
2023-02-15T14:14:59.642Z,1.98
2023-02-15T14:17:43.044Z,2.22
2023-02-15T14:20:39.963Z,2.88
2023-02-15T14:23:26.307Z,3.92
2023-02-15T14:26:17.784Z,2.45
2023-02-15T14:29:06.671Z,2.13
2023-02-15T14:31:42.299Z,2.25
2023-02-15T14:34:27.109Z,2.47
2023-02-15T14:36:59.067Z,2.38
2023-02-15T14:42:35.999Z,2.42
2023-02-15T14:45:26.356Z,2.50
2023-02-15T14:48:12.449Z,3.72
2023-02-15T14:50:48.568Z,4.15
2023-02-15T14:53:28.672Z,3.08
2023-02-15T14:56:23.106Z,2.70
2023-02-15T14:58:58.742Z,2.50
2023-02-15T15:01:33.833Z,2.40
2023-02-15T15:04:16.198Z,2.50
2023-02-15T15:06:47.696Z,2.50
2023-02-15T15:09:45.304Z,2.38
2023-02-15T15:12:25.334Z,2.35
2023-02-15T15:14:57.121Z,2.28
2023-02-15T15:17:40.461Z,2.40
2023-02-15T15:20:46.790Z,2.10
2023-02-15T15:23:18.351Z,2.22
2023-02-15T15:25:56.578Z,2.30
2023-02-15T15:28:36.908Z,2.05
2023-02-15T15:31:08.222Z,2.10
2023-02-15T15:33:50.776Z,2.00
2023-02-15T15:36:50.459Z,2.50
2023-02-15T15:39:43.375Z,2.25
2023-02-15T15:42:33.819Z,2.63
2023-02-15T15:45:45.795Z,2.60
2023-02-15T15:48:40.372Z,2.22
2023-02-15T15:51:17.725Z,2.22
2023-02-15T15:53:52.885Z,2.30
2023-02-15T15:56:35.618Z,2.13
2023-02-15T15:59:14.992Z,1.90
2023-02-15T16:01:47.820Z,1.90
2023-02-15T16:04:51.273Z,2.20
2023-02-15T16:07:22.555Z,2.10
2023-02-15T16:10:01.805Z,2.00
2023-02-15T16:12:37.345Z,1.92
2023-02-15T16:15:19.270Z,2.35
2023-02-15T16:17:58.815Z,2.90
2023-02-15T16:20:34.296Z,2.47
2023-02-15T16:23:05.278Z,2.08
2023-02-15T16:25:58.863Z,2.22
2023-02-15T16:28:30.401Z,2.33
2023-02-15T16:31:15.868Z,2.20
2023-02-15T16:33:47.989Z,2.22
2023-02-15T16:38:59.917Z,2.80
2023-02-15T16:41:32.869Z,2.30
2023-02-15T16:44:15.730Z,2.78
2023-02-15T16:46:56.414Z,2.75
2023-02-15T16:49:30.081Z,2.53
2023-02-15T16:52:09.613Z,2.60
2023-02-15T16:54:40.716Z,2.35
2023-02-15T16:57:35.840Z,2.42
2023-02-15T17:00:18.119Z,2.20
2023-02-15T17:05:43.536Z,2.20
2023-02-15T17:08:27.112Z,2.00
2023-02-15T17:11:23.731Z,2.10
2023-02-15T17:14:13.367Z,2.70
2023-02-15T17:16:51.420Z,2.20
2023-02-15T17:19:31.694Z,2.05
2023-02-15T17:22:05.970Z,2.17
2023-02-15T17:24:46.129Z,2.53
2023-02-15T17:27:20.368Z,2.65
2023-02-15T17:30:02.573Z,2.33
2023-02-15T17:32:36.814Z,2.60
2023-02-15T17:35:27.163Z,2.55
2023-02-15T17:38:30.534Z,2.60
2023-02-15T17:41:02.016Z,1.80
2023-02-15T17:43:33.678Z,2.10
2023-02-15T17:46:04.961Z,2.20
2023-02-15T17:48:38.714Z,2.47
2023-02-15T17:51:13.754Z,2.33
2023-02-15T17:54:04.400Z,2.30
2023-02-15T17:56:39.540Z,2.97
2023-02-15T17:59:12.898Z,3.45
2023-02-15T18:02:09.794Z,2.90
2023-02-15T18:04:59.034Z,2.53
2023-02-15T18:07:48.501Z,3.10
2023-02-15T18:10:39.503Z,3.10
2023-02-15T18:13:10.997Z,3.28
2023-02-15T18:15:42.386Z,3.55
2023-02-15T18:18:15.195Z,3.38
2023-02-15T18:20:46.688Z,3.45
2023-02-15T18:23:17.869Z,2.97
2023-02-15T18:25:49.412Z,3.35
2023-02-15T18:28:20.544Z,3.40
2023-02-15T18:30:53.847Z,2.60
2023-02-15T18:33:46.254Z,2.65
2023-02-15T18:36:24.745Z,3.00
2023-02-15T18:38:56.664Z,3.10
2023-02-15T18:41:31.180Z,2.90
2023-02-15T18:44:03.136Z,3.15
2023-02-15T18:46:34.291Z,3.03
2023-02-15T18:49:05.686Z,3.08
2023-02-15T18:51:41.429Z,2.45
2023-02-15T18:54:22.016Z,2.20
2023-02-15T18:57:03.111Z,2.60
2023-02-15T18:59:34.289Z,2.70
2023-02-15T19:02:05.557Z,3.13
2023-02-15T19:04:36.489Z,2.20
2023-02-15T19:07:07.574Z,2.17
2023-02-15T19:09:38.720Z,2.25
2023-02-15T19:12:14.113Z,2.15
2023-02-15T19:14:45.574Z,2.28
2023-02-15T19:17:22.247Z,2.53
2023-02-15T19:19:54.645Z,2.10
2023-02-15T19:22:36.354Z,2.10
2023-02-15T19:25:08.527Z,1.95
2023-02-15T19:27:39.803Z,1.75
2023-02-15T19:30:31.634Z,1.80
2023-02-15T19:33:04.209Z,1.60
2023-02-15T19:35:37.480Z,1.80
2023-02-15T19:38:14.058Z,1.80
2023-02-15T19:40:45.784Z,1.90
2023-02-15T19:43:23.190Z,2.20
2023-02-15T19:45:56.493Z,1.83
2023-02-15T19:48:27.763Z,1.90
2023-02-15T19:50:59.314Z,2.03
2023-02-15T19:53:31.837Z,1.77
2023-02-15T19:56:03.201Z,1.80
2023-02-15T19:58:35.227Z,1.90
2023-02-15T20:01:06.816Z,1.98
2023-02-15T20:03:38.339Z,1.63
2023-02-15T20:08:40.223Z,1.95
2023-02-15T20:11:13.489Z,1.85
2023-02-15T20:13:44.497Z,2.00
2023-02-15T20:16:15.842Z,2.25
2023-02-15T20:18:47.937Z,2.20
2023-02-15T20:21:19.631Z,2.30
2023-02-15T20:23:50.689Z,2.83
2023-02-15T20:26:22.524Z,2.67
2023-02-15T20:31:24.567Z,1.90
2023-02-15T20:33:55.519Z,2.33
2023-02-15T20:36:27.005Z,1.95
2023-02-15T20:38:59.401Z,1.80
2023-02-15T20:41:41.582Z,1.70
2023-02-15T20:44:26.952Z,1.73
2023-02-15T20:47:00.686Z,1.67
2023-02-15T20:49:32.036Z,1.50
2023-02-15T20:52:04.081Z,1.88
2023-02-15T20:54:36.961Z,1.83
2023-02-15T20:57:08.515Z,1.63
2023-02-15T20:59:39.889Z,1.40
2023-02-15T21:04:59.550Z,1.83
2023-02-15T21:10:01.734Z,1.40
2023-02-15T21:12:33.858Z,1.92
2023-02-15T21:15:04.842Z,1.58
2023-02-15T21:17:35.845Z,1.27
2023-02-15T21:20:07.218Z,1.70
2023-02-15T21:22:38.619Z,1.00
2023-02-15T21:25:12.021Z,1.23
2023-02-15T21:27:43.841Z,1.20
2023-02-15T21:30:19.686Z,1.50
2023-02-15T21:32:51.062Z,1.17
2023-02-15T21:35:23.026Z,1.10
2023-02-15T21:37:55.274Z,1.10
2023-02-15T21:40:30.212Z,1.05
2023-02-15T21:43:19.352Z,1.17
2023-02-15T21:46:08.377Z,0.88
2023-02-15T21:48:40.538Z,1.00
2023-02-15T21:51:29.877Z,1.30
2023-02-15T21:54:01.286Z,1.00
2023-02-15T21:56:32.488Z,0.80
2023-02-15T21:59:03.790Z,1.02
2023-02-15T22:01:35.248Z,1.10
2023-02-15T22:04:06.610Z,1.00
2023-02-15T22:06:38.222Z,0.88
2023-02-15T22:09:20.735Z,1.05
2023-02-15T22:11:52.704Z,1.10
2023-02-15T22:14:39.926Z,0.80
2023-02-15T22:17:36.064Z,1.10
2023-02-15T22:20:18.720Z,0.85
2023-02-15T22:22:50.868Z,0.90
2023-02-15T22:25:27.408Z,0.80
2023-02-15T22:27:58.950Z,0.82
2023-02-15T22:33:03.142Z,0.90
2023-02-15T22:35:36.141Z,0.93
2023-02-15T22:38:07.717Z,1.00
2023-02-15T22:40:39.244Z,1.00
2023-02-15T22:43:22.258Z,1.10
2023-02-15T22:45:53.474Z,0.88
2023-02-15T22:53:27.717Z,0.98
2023-02-15T22:55:59.978Z,1.10
2023-02-15T22:58:31.609Z,1.02
2023-02-15T23:01:03.947Z,1.00
2023-02-15T23:03:35.353Z,0.93
2023-02-15T23:06:06.838Z,0.80
2023-02-15T23:08:38.183Z,0.77
2023-02-15T23:11:12.806Z,0.80
2023-02-15T23:13:44.001Z,0.70
2023-02-15T23:16:19.602Z,0.93
2023-02-15T23:18:51.483Z,1.02
2023-02-15T23:21:24.124Z,1.00
2023-02-15T23:23:58.078Z,1.15
2023-02-15T23:26:32.520Z,0.70
2023-02-15T23:29:05.611Z,1.30
2023-02-15T23:31:46.840Z,1.05
2023-02-15T23:36:55.856Z,0.88
2023-02-15T23:42:29.363Z,1.45
2023-02-15T23:45:00.476Z,1.30
2023-02-15T23:47:56.049Z,0.95
2023-02-15T23:50:33.006Z,0.85
2023-02-15T23:53:05.677Z,0.80
2023-02-15T23:55:43.124Z,0.73
2023-02-15T23:58:26.293Z,0.95
